PASN/SNP METAR and TAF weather

Enter ICAO airport designator
Station Type Date Time Source
PASN METAR 2019/02/21 15:53 UTC NOAA

PASN 211553Z AUTO 22012KT 9SM FEW040 FEW120 01/M03 A3008 RMK AO2 RAB02E16UPB12E15 SLP188 P0000 T00061028 TSNO


Station Type Date Time Source
PASN Decoded METAR 2019/02/21 15:53 UTC NOAA

ST PAUL ISLAND AIRPORT, AK, United States (PASN) 57-10N 170-13W 9M
Feb 21, 2019 - 10:53 AM EST / 2019.02.21 1553 UTC
Wind: from the SW (220 degrees) at 14 MPH (12 KT):0
Visibility: 9 mile(s):0
Sky conditions: mostly clear
Precipitation last hour: A trace
Temperature: 33.1 F (0.6 C)
Windchill: 23 F (-5 C):1
Dew Point: 27.0 F (-2.8 C)
Relative Humidity: 77%
Pressure (altimeter): 30.08 in. Hg (1018 hPa)
ob: PASN 211553Z AUTO 22012KT 9SM FEW040 FEW120 01/M03 A3008 RMK AO2 RAB02E16UPB12E15 SLP188 P0000 T00061028 TSNO
cycle: 16

Station Type Date Time Source
PASN TAF 2019/02/21 12:34 UTC NOAA

TAF PASN 211131Z 2112/2212 26015G25KT P6SM -SHSN SCT025 BKN040
TEMPO 2112/2114 2SM -SHSN BKN025
FM211400 23014KT P6SM BKN040
FM211800 18020G30KT 6SM -SHSN OVC030
FM220000 18027G35KT 3SM -RASN OVC015


Example: see airport list